Time;durP1;ratioP1;P1;durP2;ratioP2;P2;SDS_P1;SDS_P2;PMS_P1;PMS_P2;Temp;Humidity;BMP_temperature;BMP_pressure;BME280_temperature;BME280_humidity;BME280_pressure;Samples;Min_cycle;Max_cycle;Signal;HPM_P1;HPM_P2
2022/12/07 00:01:38;;;;;;;2.10;0.28;;;3.40;99.90;;;;;;5036799;28;20156;-76
2022/12/07 00:04:05;;;;;;;5.85;0.45;;;3.40;99.90;;;;;;5036051;28;20030;-76
2022/12/07 00:06:39;;;;;;;7.38;1.00;;;3.40;99.90;;;;;;5036045;28;20026;-76
2022/12/07 00:09:06;;;;;;;4.60;0.57;;;3.50;99.90;;;;;;5034808;28;20479;-76
2022/12/07 00:11:32;;;;;;;2.03;0.20;;;3.50;99.90;;;;;;5034660;28;20116;-76
2022/12/07 00:14:04;;;;;;;5.63;0.40;;;3.60;99.90;;;;;;5034650;28;20022;-77
2022/12/07 00:16:32;;;;;;;4.05;0.50;;;3.60;99.90;;;;;;5035613;28;20245;-76
2022/12/07 00:18:58;;;;;;;8.95;0.40;;;3.50;99.90;;;;;;5035874;28;20080;-76
2022/12/07 00:21:26;;;;;;;5.80;0.30;;;3.50;99.90;;;;;;5033808;28;20116;-76
2022/12/07 00:23:53;;;;;;;1.33;0.35;;;3.50;99.90;;;;;;5035782;28;20416;-76
2022/12/07 00:26:29;;;;;;;1.77;0.10;;;3.40;99.90;;;;;;5035506;28;20565;-76
2022/12/07 00:28:57;;;;;;;1.85;0.20;;;3.40;99.90;;;;;;5035790;28;20080;-76
2022/12/07 00:31:25;;;;;;;6.43;0.40;;;3.40;99.90;;;;;;5035562;28;20117;-76
2022/12/07 00:33:51;;;;;;;2.47;0.38;;;3.20;99.90;;;;;;5035541;28;20083;-76
2022/12/07 00:36:20;;;;;;;7.70;0.50;;;3.30;99.90;;;;;;5033741;28;20026;-76
2022/12/07 00:38:45;;;;;;;3.10;0.10;;;3.20;99.90;;;;;;5035419;28;20373;-76
2022/12/07 00:41:12;;;;;;;1.48;0.28;;;3.20;99.90;;;;;;5035554;28;20096;-76
2022/12/07 00:43:39;;;;;;;1.27;0.28;;;3.10;99.90;;;;;;5035297;28;20029;-76
2022/12/07 00:46:05;;;;;;;5.13;0.35;;;3.10;99.90;;;;;;5035825;28;20531;-76
2022/12/07 00:48:31;;;;;;;7.88;0.88;;;3.10;99.90;;;;;;5035259;28;20082;-76
2022/12/07 00:50:57;;;;;;;4.93;0.73;;;3.00;99.90;;;;;;5035140;28;20484;-76
2022/12/07 00:53:23;;;;;;;2.53;0.20;;;3.00;99.90;;;;;;5035354;28;20013;-76
2022/12/07 00:55:48;;;;;;;2.63;0.30;;;2.90;99.90;;;;;;5035121;28;20018;-76
2022/12/07 00:58:14;;;;;;;3.45;0.32;;;2.80;99.90;;;;;;5035359;28;20052;-76
2022/12/07 01:00:42;;;;;;;1.67;0.13;;;2.80;99.90;;;;;;5035240;28;20049;-76
2022/12/07 01:03:09;;;;;;;3.50;0.40;;;2.80;99.90;;;;;;5035438;28;20065;-76
2022/12/07 01:05:35;;;;;;;4.32;0.68;;;2.70;99.90;;;;;;5034972;28;20448;-76
2022/12/07 01:08:01;;;;;;;6.25;0.10;;;2.70;99.90;;;;;;5034951;28;20061;-76
2022/12/07 01:10:27;;;;;;;5.38;0.20;;;2.70;99.90;;;;;;5033836;28;20113;-76
2022/12/07 01:12:53;;;;;;;5.93;0.77;;;2.70;99.90;;;;;;5033586;28;20564;-75
2022/12/07 01:15:19;;;;;;;8.60;0.45;;;2.70;99.90;;;;;;5033430;28;20045;-75
2022/12/07 01:17:44;;;;;;;4.35;0.35;;;2.70;99.90;;;;;;5035272;28;20419;-75
2022/12/07 01:20:10;;;;;;;5.32;0.30;;;2.70;99.90;;;;;;5034809;28;20022;-75
2022/12/07 01:22:40;;;;;;;5.00;0.65;;;2.60;99.90;;;;;;5034556;28;20041;-75
2022/12/07 01:25:07;;;;;;;4.85;0.85;;;2.60;99.90;;;;;;5033412;28;20116;-75
2022/12/07 01:27:34;;;;;;;4.13;0.52;;;2.50;99.90;;;;;;5033365;28;20523;-76
2022/12/07 01:30:00;;;;;;;1.27;0.20;;;2.50;99.90;;;;;;5033475;28;20116;-76
2022/12/07 01:32:27;;;;;;;7.32;1.17;;;2.60;99.90;;;;;;5032716;28;20026;-76
2022/12/07 01:34:52;;;;;;;3.40;0.35;;;2.60;99.90;;;;;;5033289;28;20013;-76
2022/12/07 01:37:18;;;;;;;1.75;0.25;;;2.60;99.90;;;;;;5034616;28;20504;-76
2022/12/07 01:39:43;;;;;;;5.47;0.65;;;2.70;99.90;;;;;;5033202;28;20434;-76
2022/12/07 01:42:12;;;;;;;3.80;0.30;;;2.70;99.90;;;;;;5033251;28;20026;-76
2022/12/07 01:45:15;;;;;;;1.25;0.10;;;2.60;99.90;;;;;;5034548;28;20100;-76
2022/12/07 01:47:43;;;;;;;0.98;0.10;;;2.60;99.90;;;;;;5033280;28;20029;-76
2022/12/07 01:50:09;;;;;;;5.53;0.30;;;2.50;99.90;;;;;;5034536;28;20032;-76
2022/12/07 01:52:37;;;;;;;3.13;0.22;;;2.50;99.90;;;;;;5034601;28;20022;-76
2022/12/07 01:55:11;;;;;;;0.80;0.00;;;2.40;99.90;;;;;;5034082;28;20022;-76
2022/12/07 01:57:42;;;;;;;7.72;0.30;;;2.50;99.90;;;;;;5034292;28;20018;-76
2022/12/07 02:00:10;;;;;;;3.28;0.20;;;2.50;99.90;;;;;;5034151;28;20028;-76
2022/12/07 02:02:52;;;;;;;8.13;1.33;;;2.50;99.90;;;;;;5034126;28;20032;-76
2022/12/07 02:05:19;;;;;;;2.70;0.73;;;2.60;99.90;;;;;;5034627;28;20029;-76
2022/12/07 02:07:47;;;;;;;4.65;0.10;;;2.50;99.90;;;;;;5034086;28;20025;-76
2022/12/07 02:10:18;;;;;;;3.20;0.20;;;2.80;99.90;;;;;;5034046;28;20030;-76
2022/12/07 02:12:47;;;;;;;6.13;0.35;;;2.80;99.90;;;;;;5033698;28;20021;-76
2022/12/07 02:15:12;;;;;;;;;;;2.90;99.90;;;;;;5032895;28;20028;-76
2022/12/07 02:17:47;;;;;;;5.03;0.20;;;2.90;99.90;;;;;;5033909;28;20374;-76
2022/12/07 02:20:35;;;;;;;2.25;0.00;;;3.00;99.90;;;;;;5032754;28;20028;-75
2022/12/07 02:23:18;;;;;;;2.08;0.03;;;3.00;99.90;;;;;;5033767;28;20045;-75
2022/12/07 02:26:12;;;;;;;1.63;0.00;;;3.00;99.90;;;;;;5033605;28;20484;-75
2022/12/07 02:28:46;;;;;;;6.53;0.68;;;3.10;99.90;;;;;;5033522;28;20178;-75
2022/12/07 02:31:18;;;;;;;5.03;0.38;;;3.10;99.90;;;;;;5032421;28;20026;-75
2022/12/07 02:33:49;;;;;;;5.80;0.10;;;3.10;99.90;;;;;;5032466;28;20025;-75
2022/12/07 02:36:37;;;;;;;4.40;0.20;;;;;;;;;;5033426;28;20067;-76
2022/12/07 02:39:11;;;;;;;2.03;0.08;;;3.20;99.90;;;;;;5032189;28;20021;-77
2022/12/07 02:42:00;;;;;;;0.93;0.00;;;3.20;99.90;;;;;;5033949;28;20480;-77
2022/12/07 02:44:28;;;;;;;3.63;0.17;;;3.10;99.90;;;;;;5035705;28;20028;-77
2022/12/07 02:46:58;;;;;;;6.63;0.45;;;3.10;99.90;;;;;;5037495;28;20027;-77
2022/12/07 02:49:27;;;;;;;2.92;0.98;;;3.10;99.90;;;;;;5037681;28;20108;-77
2022/12/07 02:51:53;;;;;;;3.70;0.13;;;3.00;99.90;;;;;;5037797;28;20032;-77
2022/12/07 02:54:20;;;;;;;8.30;0.50;;;3.00;99.90;;;;;;5037761;28;20025;-77
2022/12/07 02:56:50;;;;;;;1.42;0.28;;;3.00;99.90;;;;;;5036483;28;20021;-77
2022/12/07 02:59:25;;;;;;;2.15;0.10;;;2.90;99.90;;;;;;5036308;28;20029;-77
2022/12/07 03:01:57;;;;;;;6.18;0.40;;;2.90;99.90;;;;;;5037795;28;20029;-77
2022/12/07 03:04:56;;;;;;;6.05;0.15;;;2.90;99.90;;;;;;5037370;28;20144;-77
2022/12/07 03:07:32;;;;;;;1.30;0.30;;;2.90;99.90;;;;;;5037445;28;20025;-78
2022/12/07 03:10:06;;;;;;;2.85;0.22;;;3.00;99.90;;;;;;5037475;28;20075;-77
2022/12/07 03:12:44;;;;;;;4.07;0.15;;;2.90;99.90;;;;;;5037330;28;20096;-77
2022/12/07 03:15:24;;;;;;;2.22;0.20;;;2.90;99.90;;;;;;5037224;28;20051;-77
2022/12/07 03:17:52;;;;;;;1.40;0.10;;;2.90;99.90;;;;;;5037277;28;20057;-77
2022/12/07 03:20:23;;;;;;;2.85;0.00;;;2.90;99.90;;;;;;5037065;28;20112;-77
2022/12/07 03:22:50;;;;;;;0.80;0.00;;;2.90;99.90;;;;;;5036924;28;20030;-77
2022/12/07 03:25:17;;;;;;;3.97;0.50;;;2.90;99.90;;;;;;5036938;28;20029;-77
2022/12/07 03:27:55;;;;;;;1.00;0.00;;;2.80;99.90;;;;;;5036745;28;20086;-77
2022/12/07 03:30:26;;;;;;;1.25;0.00;;;2.80;99.90;;;;;;5036877;28;20040;-77
2022/12/07 03:33:20;;;;;;;5.43;0.10;;;2.70;99.90;;;;;;5037029;28;20025;-77
2022/12/07 03:35:58;;;;;;;4.55;0.00;;;2.70;99.90;;;;;;5031134;28;20041;-77
2022/12/07 03:38:37;;;;;;;6.20;0.28;;;2.60;99.90;;;;;;5036681;28;20045;-77
2022/12/07 03:41:06;;;;;;;2.67;0.05;;;2.60;99.90;;;;;;5036845;28;20480;-77
2022/12/07 03:43:32;;;;;;;0.40;0.00;;;2.60;99.90;;;;;;5037101;28;20032;-77
2022/12/07 03:46:17;;;;;;;4.55;0.63;;;2.50;99.90;;;;;;5036868;28;20029;-77
2022/12/07 03:48:48;;;;;;;4.15;0.10;;;2.50;99.90;;;;;;5036986;28;20026;-77
2022/12/07 03:51:40;;;;;;;3.20;0.22;;;2.50;99.90;;;;;;5035092;28;20037;-77
2022/12/07 03:54:27;;;;;;;3.40;0.00;;;2.50;99.90;;;;;;5026101;28;20030;-77
2022/12/07 03:56:54;;;;;;;2.13;0.00;;;2.50;99.90;;;;;;5035828;28;20030;-77
2022/12/07 03:59:20;;;;;;;2.97;0.13;;;2.50;99.90;;;;;;5035432;28;20435;-77
2022/12/07 04:01:57;;;;;;;1.92;0.00;;;2.50;99.90;;;;;;5035540;28;20031;-77
2022/12/07 04:04:26;;;;;;;2.97;0.00;;;2.50;99.90;;;;;;5035276;28;20029;-77
2022/12/07 04:06:51;;;;;;;2.38;0.00;;;2.40;99.90;;;;;;5035112;28;20568;-77
2022/12/07 04:09:17;;;;;;;4.43;0.30;;;2.40;99.90;;;;;;5036417;28;20113;-77
2022/12/07 04:11:43;;;;;;;4.22;0.00;;;2.40;99.90;;;;;;5036846;28;20036;-77
2022/12/07 04:14:18;;;;;;;5.85;0.20;;;2.40;99.90;;;;;;5036388;28;20028;-77
2022/12/07 04:16:50;;;;;;;6.18;0.00;;;2.40;99.90;;;;;;5036541;28;20026;-77
2022/12/07 04:19:17;;;;;;;11.48;1.27;;;2.40;99.90;;;;;;5036236;28;20025;-77
2022/12/07 04:21:43;;;;;;;1.80;0.05;;;;;;;;;;5067929;23;20482;-77
2022/12/07 04:24:11;;;;;;;3.78;0.10;;;2.30;99.90;;;;;;5076563;28;20491;-77
2022/12/07 04:26:36;;;;;;;4.63;0.00;;;3.40;99.90;;;;;;5075969;28;20474;-77
2022/12/07 04:29:02;;;;;;;0.85;0.00;;;2.30;99.90;;;;;;5075060;28;20027;-77
2022/12/07 04:31:28;;;;;;;2.45;0.00;;;2.20;99.90;;;;;;5076086;28;20027;-77
2022/12/07 04:33:54;;;;;;;4.07;0.03;;;2.20;99.90;;;;;;5075871;28;20031;-77
2022/12/07 04:36:20;;;;;;;3.10;0.38;;;2.20;99.90;;;;;;5075880;28;20036;-77
2022/12/07 04:38:46;;;;;;;2.83;0.00;;;2.20;99.90;;;;;;5076551;28;20021;-77
2022/12/07 04:41:11;;;;;;;4.13;0.10;;;2.30;99.90;;;;;;5075958;28;20029;-77
2022/12/07 04:43:37;;;;;;;0.77;0.00;;;2.30;99.90;;;;;;5075498;28;20031;-77
2022/12/07 04:46:03;;;;;;;4.03;0.30;;;2.30;99.90;;;;;;5075757;28;20021;-77
2022/12/07 04:48:29;;;;;;;4.30;0.00;;;2.30;99.90;;;;;;5075225;28;20111;-77
2022/12/07 04:50:55;;;;;;;0.70;0.10;;;2.30;99.90;;;;;;5074311;28;20028;-77
2022/12/07 04:53:20;;;;;;;4.93;0.52;;;2.40;99.90;;;;;;5075799;28;20016;-77
2022/12/07 04:55:46;;;;;;;4.70;0.20;;;2.30;99.90;;;;;;5075514;28;20078;-77
2022/12/07 04:58:13;;;;;;;5.40;0.10;;;2.30;99.90;;;;;;5075949;28;20374;-77
2022/12/07 05:00:39;;;;;;;4.40;0.10;;;2.30;99.90;;;;;;5074097;28;20067;-77
2022/12/07 05:03:05;;;;;;;4.63;0.10;;;2.30;99.90;;;;;;5074905;28;20371;-77
2022/12/07 05:05:30;;;;;;;1.38;0.00;;;2.30;99.90;;;;;;5075168;28;20058;-77
2022/12/07 05:07:56;;;;;;;4.75;0.00;;;2.30;99.90;;;;;;5075722;28;20020;-77
2022/12/07 05:10:21;;;;;;;6.20;0.35;;;2.30;99.90;;;;;;5075773;28;20032;-77
2022/12/07 05:12:47;;;;;;;4.18;0.35;;;2.30;99.90;;;;;;5075164;28;20020;-77
2022/12/07 05:15:13;;;;;;;2.92;0.30;;;2.40;99.90;;;;;;5075579;28;20475;-77
2022/12/07 05:17:39;;;;;;;4.35;0.00;;;2.40;99.90;;;;;;5073816;28;20086;-77
2022/12/07 05:20:05;;;;;;;4.90;0.38;;;2.40;99.90;;;;;;5075078;28;20021;-77
2022/12/07 05:22:31;;;;;;;4.30;0.00;;;2.40;99.90;;;;;;5074847;28;20051;-77
2022/12/07 05:24:57;;;;;;;1.38;0.00;;;2.40;99.90;;;;;;5075002;28;20028;-77
2022/12/07 05:27:23;;;;;;;2.70;0.08;;;2.40;99.90;;;;;;5074805;28;20024;-77
2022/12/07 05:29:50;;;;;;;8.15;0.10;;;2.40;99.90;;;;;;5074434;28;20361;-77
2022/12/07 05:32:16;;;;;;;2.50;0.00;;;2.40;99.90;;;;;;5073169;28;20020;-77
2022/12/07 05:34:42;;;;;;;1.67;0.10;;;2.40;99.90;;;;;;5075601;28;20379;-77
2022/12/07 05:37:07;;;;;;;3.47;0.10;;;2.40;99.90;;;;;;5074453;28;20438;-77
2022/12/07 05:39:33;;;;;;;1.85;0.22;;;;;;;;;;5073115;28;20050;-77
2022/12/07 05:42:14;;;;;;;1.95;0.00;;;2.40;99.90;;;;;;5073512;28;20070;-77
2022/12/07 05:44:45;;;;;;;2.30;0.00;;;2.40;99.90;;;;;;5075284;28;20016;-77
2022/12/07 05:47:11;;;;;;;1.73;0.15;;;2.40;99.90;;;;;;5073543;28;20025;-77
2022/12/07 05:49:37;;;;;;;3.95;0.15;;;2.40;99.90;;;;;;5074684;28;20052;-77
2022/12/07 05:52:03;;;;;;;2.53;0.32;;;2.40;99.90;;;;;;5073409;28;20063;-77
2022/12/07 05:54:29;;;;;;;4.80;0.17;;;2.40;99.90;;;;;;5074501;28;20017;-77
2022/12/07 05:56:54;;;;;;;0.45;0.17;;;2.40;99.90;;;;;;5074458;28;20024;-77
2022/12/07 05:59:22;;;;;;;1.42;0.00;;;2.40;99.90;;;;;;5074477;28;20028;-77
2022/12/07 06:01:53;;;;;;;1.70;0.10;;;2.50;99.90;;;;;;5073281;28;20509;-77
2022/12/07 06:04:20;;;;;;;1.27;0.00;;;2.30;99.90;;;;;;5074639;28;20021;-77
2022/12/07 06:06:46;;;;;;;5.38;0.05;;;2.40;99.90;;;;;;5073062;28;20024;-77
2022/12/07 06:09:12;;;;;;;3.10;0.05;;;2.30;99.90;;;;;;5074042;28;20020;-77
2022/12/07 06:14:23;;;;;;;1.40;0.00;;;2.20;99.90;;;;;;5074612;28;20044;-77
2022/12/07 06:16:48;;;;;;;1.77;0.50;;;2.20;99.90;;;;;;5074585;28;20021;-77
2022/12/07 06:19:14;;;;;;;5.63;0.73;;;2.20;99.90;;;;;;5072363;28;20421;-75
2022/12/07 06:21:40;;;;;;;3.85;0.10;;;2.20;99.90;;;;;;5074328;28;20071;-74
2022/12/07 06:24:06;;;;;;;3.15;0.20;;;2.20;99.90;;;;;;5074729;28;20034;-74
2022/12/07 06:26:31;;;;;;;2.05;0.22;;;2.20;99.90;;;;;;5072321;28;20119;-74
2022/12/07 06:28:57;;;;;;;3.50;0.00;;;2.20;99.90;;;;;;5074297;28;20104;-74
2022/12/07 06:31:22;;;;;;;3.33;0.57;;;2.20;99.90;;;;;;5073690;28;20025;-74
2022/12/07 06:33:48;;;;;;;2.92;0.00;;;2.20;99.90;;;;;;5074168;28;20050;-74
2022/12/07 06:36:14;;;;;;;3.05;0.38;;;2.20;99.90;;;;;;5073027;28;20078;-74
2022/12/07 06:38:39;;;;;;;6.30;0.20;;;2.20;99.90;;;;;;5072793;28;20016;-74
2022/12/07 06:41:06;;;;;;;4.65;0.00;;;2.10;99.90;;;;;;5072733;28;20475;-74
2022/12/07 06:43:31;;;;;;;2.53;0.00;;;2.10;99.90;;;;;;5074058;28;20150;-74
2022/12/07 06:45:57;;;;;;;4.53;0.08;;;2.10;99.90;;;;;;5073695;28;20074;-74
2022/12/07 06:48:23;;;;;;;5.53;0.20;;;2.10;99.90;;;;;;5073893;28;20021;-74
2022/12/07 06:50:49;;;;;;;4.18;0.10;;;2.10;99.90;;;;;;5073919;28;20044;-74
2022/12/07 06:53:14;;;;;;;3.97;0.10;;;2.10;99.90;;;;;;5073702;28;20052;-74
2022/12/07 06:55:40;;;;;;;3.60;0.00;;;2.10;99.90;;;;;;5072583;28;20017;-74
2022/12/07 06:58:05;;;;;;;4.15;0.00;;;2.10;99.90;;;;;;5072534;28;20458;-74
2022/12/07 07:00:31;;;;;;;2.80;0.30;;;2.20;99.90;;;;;;5074177;28;20095;-74
2022/12/07 07:02:57;;;;;;;5.38;0.20;;;2.20;99.90;;;;;;5074331;28;20103;-74
2022/12/07 07:05:22;;;;;;;7.90;0.55;;;2.20;99.90;;;;;;5074273;28;20028;-75
2022/12/07 07:07:51;;;;;;;3.67;0.20;;;2.20;99.90;;;;;;5074767;28;20035;-75
2022/12/07 07:10:16;;;;;;;2.85;0.15;;;2.20;99.90;;;;;;5073304;28;20020;-75
2022/12/07 07:12:42;;;;;;;2.90;0.55;;;2.30;99.90;;;;;;5074247;28;20036;-74
2022/12/07 07:15:08;;;;;;;10.57;0.20;;;2.30;99.90;;;;;;5072795;28;20021;-74
2022/12/07 07:17:33;;;;;;;2.83;0.00;;;2.30;99.90;;;;;;5072605;28;20071;-74
2022/12/07 07:19:59;;;;;;;3.78;0.10;;;2.30;99.90;;;;;;5073159;28;20033;-75
2022/12/07 07:22:24;;;;;;;9.30;0.80;;;2.30;99.90;;;;;;5075060;28;20483;-75
2022/12/07 07:24:50;;;;;;;3.25;0.00;;;2.30;99.90;;;;;;5073930;28;20020;-75
2022/12/07 07:27:15;;;;;;;2.38;0.30;;;2.30;99.90;;;;;;5073923;28;20074;-75
2022/12/07 07:29:41;;;;;;;3.40;0.10;;;2.30;99.90;;;;;;5072745;28;20028;-75
2022/12/07 07:32:07;;;;;;;3.22;0.10;;;2.20;99.90;;;;;;5076093;28;20021;-75
2022/12/07 07:34:33;;;;;;;2.80;0.10;;;2.20;99.90;;;;;;5076774;28;20035;-75
2022/12/07 07:36:58;;;;;;;2.85;0.00;;;2.10;99.90;;;;;;5077396;28;20103;-75
2022/12/07 07:39:24;;;;;;;3.60;0.05;;;2.10;99.90;;;;;;5076521;28;20033;-75
2022/12/07 07:41:50;;;;;;;2.28;0.00;;;2.10;99.90;;;;;;5076433;28;20052;-75
2022/12/07 07:44:15;;;;;;;3.95;1.02;;;2.10;99.90;;;;;;5077337;28;20475;-75
2022/12/07 07:46:41;;;;;;;5.15;0.00;;;2.00;99.90;;;;;;5077031;28;20024;-75
2022/12/07 07:49:06;;;;;;;12.75;1.80;;;2.00;99.90;;;;;;5076136;28;20051;-75
2022/12/07 07:51:32;;;;;;;3.55;0.17;;;2.00;99.90;;;;;;5076067;28;20024;-75
2022/12/07 07:53:57;;;;;;;2.50;0.25;;;2.00;99.90;;;;;;5077371;28;20029;-75
2022/12/07 07:56:23;;;;;;;2.30;0.00;;;1.90;99.90;;;;;;5076328;28;20569;-74
2022/12/07 07:58:52;;;;;;;3.35;0.10;;;1.90;99.90;;;;;;5077365;28;20051;-75
2022/12/07 08:01:19;;;;;;;8.82;0.00;;;1.90;99.90;;;;;;5077286;28;20032;-75
2022/12/07 08:03:45;;;;;;;5.60;0.50;;;1.90;99.90;;;;;;5077278;28;20080;-75
2022/12/07 08:06:11;;;;;;;6.70;0.47;;;1.90;99.90;;;;;;5077459;28;20027;-75
2022/12/07 08:08:37;;;;;;;6.65;0.45;;;1.90;99.90;;;;;;5077779;28;20099;-75
2022/12/07 08:11:05;;;;;;;8.73;0.77;;;1.90;99.90;;;;;;5074628;28;20435;-75
2022/12/07 08:13:31;;;;;;;5.13;0.17;;;1.90;99.90;;;;;;5075661;28;20074;-75
2022/12/07 08:15:56;;;;;;;8.35;0.22;;;2.00;99.90;;;;;;5074861;28;20028;-75
2022/12/07 08:18:22;;;;;;;5.45;0.20;;;2.10;99.90;;;;;;5076960;28;20048;-75
2022/12/07 08:20:48;;;;;;;8.90;0.65;;;2.20;99.90;;;;;;5074605;28;20029;-75
2022/12/07 08:23:13;;;;;;;1.25;0.08;;;2.20;99.90;;;;;;5075447;28;20086;-75
2022/12/07 08:25:39;;;;;;;3.03;0.20;;;2.40;99.90;;;;;;5074773;28;20048;-75
2022/12/07 08:28:05;;;;;;;3.58;0.00;;;2.60;99.90;;;;;;5076016;28;20070;-75
2022/12/07 08:30:31;;;;;;;1.15;0.05;;;2.80;99.90;;;;;;5074891;28;20475;-74
2022/12/07 08:32:57;;;;;;;6.22;0.57;;;3.00;99.90;;;;;;5075458;28;20077;-74
2022/12/07 08:35:23;;;;;;;1.50;0.60;;;3.10;99.90;;;;;;5074637;28;20025;-74
2022/12/07 08:37:49;;;;;;;3.92;0.15;;;3.20;99.90;;;;;;5074760;28;20020;-74
2022/12/07 08:40:15;;;;;;;3.70;0.40;;;3.30;99.90;;;;;;5075896;28;20032;-75
2022/12/07 08:42:44;;;;;;;5.25;0.15;;;3.40;99.90;;;;;;5075659;28;20387;-75
2022/12/07 08:45:12;;;;;;;3.80;0.00;;;3.50;99.90;;;;;;5074970;28;20016;-75
2022/12/07 08:47:43;;;;;;;3.95;0.30;;;3.50;99.90;;;;;;5075768;28;20051;-75
2022/12/07 08:50:11;;;;;;;7.13;0.10;;;3.50;99.90;;;;;;5075439;28;20025;-75
2022/12/07 08:52:41;;;;;;;6.75;0.50;;;3.50;99.90;;;;;;5074872;28;20028;-75
2022/12/07 08:55:09;;;;;;;7.80;0.57;;;3.60;99.90;;;;;;5074990;28;20025;-75
2022/12/07 08:57:36;;;;;;;3.67;0.75;;;3.60;99.90;;;;;;5074974;28;20024;-75
2022/12/07 09:00:03;;;;;;;3.38;0.52;;;3.60;99.90;;;;;;5075054;28;20021;-75
2022/12/07 09:02:31;;;;;;;5.15;0.30;;;3.70;99.90;;;;;;5074802;28;20518;-74
2022/12/07 09:04:56;;;;;;;2.35;0.10;;;3.80;99.90;;;;;;5074747;28;20021;-75
2022/12/07 09:07:22;;;;;;;1.88;0.20;;;3.80;99.90;;;;;;5074687;28;20391;-75
2022/12/07 09:09:48;;;;;;;4.70;0.10;;;3.80;99.90;;;;;;5073349;28;20017;-76
2022/12/07 09:12:13;;;;;;;5.20;0.00;;;3.90;99.90;;;;;;5074842;28;20493;-75
2022/12/07 09:14:39;;;;;;;5.80;0.30;;;;;;;;;;5074683;28;20506;-75
2022/12/07 09:17:11;;;;;;;6.78;0.03;;;4.10;99.90;;;;;;5074377;28;20544;-76
2022/12/07 09:19:38;;;;;;;4.60;0.17;;;4.10;99.90;;;;;;5074346;28;20552;-76
2022/12/07 09:22:04;;;;;;;3.85;0.22;;;;;;;;;;5073025;28;20056;-76
2022/12/07 09:24:31;;;;;;;1.70;0.00;;;4.20;99.90;;;;;;5073174;28;20126;-75
2022/12/07 09:26:57;;;;;;;5.65;0.60;;;4.30;99.90;;;;;;5073300;28;20020;-75
2022/12/07 09:29:23;;;;;;;5.32;0.17;;;4.30;99.90;;;;;;5073496;28;20028;-76
2022/12/07 09:31:49;;;;;;;5.03;0.30;;;4.30;99.90;;;;;;5073011;28;20082;-77
2022/12/07 09:34:14;;;;;;;2.20;0.10;;;4.30;99.90;;;;;;5074590;28;20029;-77
2022/12/07 09:36:40;;;;;;;4.72;0.08;;;4.40;99.90;;;;;;5074122;28;20025;-77
2022/12/07 09:39:06;;;;;;;4.93;0.25;;;4.60;99.90;;;;;;5074078;28;20496;-77
2022/12/07 09:41:32;;;;;;;4.95;0.50;;;4.80;99.90;;;;;;5072767;28;20174;-77
2022/12/07 09:44:20;;;;;;;13.18;1.05;;;5.00;99.90;;;;;;5074087;28;20036;-78
2022/12/07 09:46:46;;;;;;;1.60;0.43;;;5.30;99.90;;;;;;5073982;28;20032;-77
2022/12/07 09:49:17;;;;;;;4.78;0.25;;;5.40;99.90;;;;;;5072694;28;20032;-77
2022/12/07 09:51:43;;;;;;;6.10;0.63;;;5.50;99.90;;;;;;5073804;28;20021;-77
2022/12/07 09:54:13;;;;;;;1.65;0.15;;;5.50;99.90;;;;;;5073133;28;20032;-77
2022/12/07 09:56:39;;;;;;;4.05;0.08;;;5.60;99.90;;;;;;5075371;28;20038;-78
2022/12/07 09:59:04;;;;;;;2.28;0.10;;;5.50;99.90;;;;;;5073134;28;20051;-78
2022/12/07 10:01:32;;;;;;;4.28;0.28;;;5.60;99.90;;;;;;5073417;28;20510;-78
2022/12/07 10:04:08;;;;;;;0.30;0.00;;;5.60;99.90;;;;;;5074278;28;20031;-78
2022/12/07 10:06:34;;;;;;;4.32;0.00;;;5.70;99.90;;;;;;5073456;28;20024;-78
2022/12/07 10:08:59;;;;;;;2.30;0.10;;;5.70;99.90;;;;;;5073094;28;20084;-78
2022/12/07 10:11:25;;;;;;;4.22;0.00;;;7.70;99.90;;;;;;5074134;28;20518;-79
2022/12/07 10:13:55;;;;;;;6.72;0.93;;;5.60;99.90;;;;;;5074337;28;20108;-79
2022/12/07 10:16:38;;;;;;;6.22;0.35;;;5.60;99.90;;;;;;5072432;28;20046;-78
2022/12/07 10:19:29;;;;;;;3.00;0.17;;;5.50;99.90;;;;;;5072694;28;20392;-78
2022/12/07 10:22:15;;;;;;;7.68;0.40;;;5.50;99.90;;;;;;5072496;28;20062;-78
2022/12/07 10:24:43;;;;;;;1.70;0.00;;;5.50;99.90;;;;;;5072848;28;20055;-78
2022/12/07 10:27:20;;;;;;;2.75;0.13;;;5.60;99.90;;;;;;5073744;28;20017;-78
2022/12/07 10:29:51;;;;;;;3.15;0.68;;;5.60;99.90;;;;;;5073911;28;20029;-78
2022/12/07 10:32:16;;;;;;;2.17;0.10;;;5.80;99.90;;;;;;5074073;28;20028;-78
2022/12/07 10:34:45;;;;;;;4.50;0.25;;;5.90;99.90;;;;;;5072732;28;20021;-79
2022/12/07 10:37:16;;;;;;;2.63;0.00;;;6.10;99.90;;;;;;5072741;28;20405;-78
2022/12/07 10:39:45;;;;;;;1.13;0.30;;;6.30;99.90;;;;;;5073423;28;20033;-79
2022/12/07 10:42:29;;;;;;;2.42;0.00;;;6.50;99.90;;;;;;5072932;28;20021;-78
2022/12/07 10:45:16;;;;;;;4.28;0.00;;;6.90;99.90;;;;;;5074016;28;20031;-79
2022/12/07 10:48:21;;;;;;;4.75;0.38;;;6.90;99.90;;;;;;5072809;28;20021;-78
2022/12/07 10:51:10;;;;;;;1.23;0.20;;;7.00;99.90;;;;;;5073979;28;20391;-79
2022/12/07 10:53:58;;;;;;;0.03;0.00;;;7.00;99.90;;;;;;5074107;28;20028;-79
2022/12/07 10:56:29;;;;;;;4.50;0.83;;;7.00;99.90;;;;;;5073717;28;20025;-79
2022/12/07 10:59:14;;;;;;;3.72;0.20;;;6.90;99.90;;;;;;5074520;28;20032;-78
2022/12/07 11:01:50;;;;;;;7.93;0.40;;;6.90;99.90;;;;;;5072541;28;20506;-79
2022/12/07 11:04:26;;;;;;;2.47;0.05;;;6.90;99.90;;;;;;5075004;28;20032;-79
2022/12/07 11:07:04;;;;;;;0.82;0.10;;;6.80;99.90;;;;;;5077707;28;20075;-79
2022/12/07 11:09:43;;;;;;;0.73;0.00;;;6.70;99.90;;;;;;5079489;28;20025;-79
2022/12/07 11:12:29;;;;;;;4.65;0.00;;;6.50;99.90;;;;;;5077180;28;20360;-79
2022/12/07 11:15:02;;;;;;;3.80;0.17;;;6.40;99.90;;;;;;5077527;28;20035;-78
2022/12/07 11:18:00;;;;;;;3.35;0.22;;;6.40;99.90;;;;;;5078563;28;20495;-78
2022/12/07 11:21:10;;;;;;;4.03;0.00;;;6.30;99.90;;;;;;5078813;28;20020;-78
2022/12/07 11:24:03;;;;;;;0.68;0.03;;;6.30;99.90;;;;;;5078109;28;20029;-78
2022/12/07 11:26:47;;;;;;;0.38;0.00;;;6.20;99.90;;;;;;5079494;28;20017;-78
2022/12/07 11:29:57;;;;;;;3.20;0.00;;;6.20;99.90;;;;;;5078784;28;20028;-78
2022/12/07 11:32:31;;;;;;;5.15;0.00;;;6.20;99.90;;;;;;5054492;28;20495;-78
2022/12/07 11:35:34;;;;;;;4.35;0.00;;;6.30;99.90;;;;;;5079796;28;20032;-78
2022/12/07 11:38:10;;;;;;;5.55;0.08;;;6.30;99.90;;;;;;5078792;28;20047;-78
2022/12/07 11:40:36;;;;;;;2.53;0.00;;;6.40;99.90;;;;;;5080182;28;20107;-78
2022/12/07 11:43:28;;;;;;;1.55;0.00;;;6.30;99.90;;;;;;5079889;28;20035;-78
2022/12/07 11:46:10;;;;;;;1.25;0.00;;;6.30;99.90;;;;;;5078809;28;20017;-78
2022/12/07 11:48:55;;;;;;;4.15;0.08;;;6.30;99.90;;;;;;5080092;28;20029;-78
2022/12/07 11:51:22;;;;;;;0.55;0.10;;;6.10;99.90;;;;;;5076439;28;20029;-78
2022/12/07 11:54:13;;;;;;;1.27;0.00;;;6.00;99.90;;;;;;5077733;28;20451;-78
2022/12/07 11:56:39;;;;;;;4.20;0.50;;;6.00;99.90;;;;;;5074889;28;20471;-78
2022/12/07 11:59:11;;;;;;;2.25;0.10;;;6.10;99.90;;;;;;5074785;28;20023;-78
2022/12/07 12:02:12;;;;;;;4.07;0.28;;;6.20;99.90;;;;;;5076951;28;20452;-79
2022/12/07 12:04:47;;;;;;;2.42;0.28;;;6.30;99.90;;;;;;5079791;28;20025;-78
2022/12/07 12:07:18;;;;;;;4.82;0.47;;;6.30;99.90;;;;;;5081642;28;20037;-78
2022/12/07 12:10:04;;;;;;;2.15;0.00;;;6.40;99.90;;;;;;5079834;28;20028;-78
2022/12/07 12:12:56;;;;;;;2.50;0.10;;;6.60;99.90;;;;;;5080102;28;20020;-78
2022/12/07 12:15:28;;;;;;;5.45;0.10;;;7.00;99.90;;;;;;5081352;28;20033;-78
2022/12/07 12:18:31;;;;;;;1.42;0.00;;;7.20;99.90;;;;;;5080556;28;20122;-78
2022/12/07 12:21:12;;;;;;;2.15;0.00;;;7.20;99.90;;;;;;5081728;28;20033;-78
2022/12/07 12:23:46;;;;;;;1.48;0.00;;;7.50;99.90;;;;;;5079535;28;20047;-79
2022/12/07 12:26:20;;;;;;;5.18;0.55;;;7.60;99.90;;;;;;5081839;28;20020;-78
2022/12/07 12:28:53;;;;;;;6.82;0.93;;;7.60;99.90;;;;;;5079391;28;20023;-79
2022/12/07 12:31:22;;;;;;;1.95;0.00;;;7.50;99.90;;;;;;5089136;28;20041;-79
2022/12/07 12:33:52;;;;;;;2.67;0.55;;;7.40;99.90;;;;;;5081373;28;20479;-79
2022/12/07 12:36:20;;;;;;;3.20;0.40;;;7.30;99.90;;;;;;5088218;28;20040;-79
2022/12/07 12:39:14;;;;;;;4.77;0.77;;;7.20;99.90;;;;;;5074874;28;20395;-77
2022/12/07 12:44:15;;;;;;;1.88;0.10;;;;;;;;;;5085588;28;20029;-80
2022/12/07 12:46:53;;;;;;;3.47;0.10;;;6.50;99.90;;;;;;5085919;28;20108;-79
2022/12/07 12:49:19;;;;;;;6.88;0.10;;;6.50;99.90;;;;;;5083971;28;20119;-80
2022/12/07 12:51:50;;;;;;;2.80;0.08;;;6.60;99.90;;;;;;5084795;28;20029;-78
2022/12/07 12:54:29;;;;;;;3.45;0.10;;;6.70;99.90;;;;;;5078495;28;20027;-77
2022/12/07 12:57:08;;;;;;;4.80;0.00;;;6.90;99.90;;;;;;5077715;28;20067;-78
2022/12/07 12:59:42;;;;;;;3.20;0.80;;;7.10;99.90;;;;;;5079969;28;20027;-78
2022/12/07 13:02:10;;;;;;;3.00;0.00;;;7.10;99.90;;;;;;5080235;28;20051;-78
2022/12/07 13:04:55;;;;;;;3.78;0.00;;;7.00;99.90;;;;;;5079506;28;20060;-78
2022/12/07 13:07:46;;;;;;;6.22;0.20;;;7.00;99.90;;;;;;5074370;28;20120;-78
2022/12/07 13:10:30;;;;;;;5.57;0.00;;;6.90;99.90;;;;;;5080618;28;20025;-78
2022/12/07 13:13:19;;;;;;;4.70;0.17;;;6.90;99.90;;;;;;5081149;28;20032;-78
2022/12/07 13:15:46;;;;;;;2.25;0.20;;;7.10;99.90;;;;;;5080175;28;20020;-78
2022/12/07 13:18:31;;;;;;;1.95;0.10;;;7.20;99.90;;;;;;5080636;28;20019;-78
2022/12/07 13:21:09;;;;;;;4.25;0.30;;;7.50;99.90;;;;;;5074646;28;20037;-78
2022/12/07 13:23:55;;;;;;;2.17;0.10;;;7.60;99.90;;;;;;5074272;28;20530;-77